Time;durP1;ratioP1;P1;durP2;ratioP2;P2;SDS_P1;SDS_P2;PMS_P1;PMS_P2;Temp;Humidity;BMP_temperature;BMP_pressure;BME280_temperature;BME280_humidity;BME280_pressure;Samples;Min_cycle;Max_cycle;Signal;HPM_P1;HPM_P2
2021/06/06 00:02:21;;;;;;;6.13;4.03;;;;;;;;;;5077980;28;20082;-71
2021/06/06 00:05:06;;;;;;;6.93;4.13;;;;;;;;;;5055777;28;20062;-71
2021/06/06 00:07:51;;;;;;;7.05;4.47;;;;;;;;;;5066751;28;20503;-71
2021/06/06 00:10:35;;;;;;;6.93;4.68;;;;;;;;;;5065095;28;20171;-72
2021/06/06 00:13:20;;;;;;;8.48;4.45;;;;;;;;;;5104038;27;20491;-72
2021/06/06 00:16:05;;;;;;;7.45;4.53;;;;;;;;;;5082091;28;20119;-72
2021/06/06 00:18:50;;;;;;;6.38;4.05;;;;;;;;;;5074171;28;20039;-72
2021/06/06 00:21:35;;;;;;;10.15;4.50;;;;;;;;;;5070993;28;20043;-71
2021/06/06 00:24:20;;;;;;;9.32;4.95;;;;;;;;;;5069863;28;20086;-73
2021/06/06 00:27:05;;;;;;;7.15;4.22;;;;;;;;;;5029650;28;20110;-73
2021/06/06 00:29:50;;;;;;;8.07;4.68;;;;;;;;;;5061697;28;20051;-72
2021/06/06 00:32:35;;;;;;;6.03;4.10;;;;;;;;;;5049421;28;20043;-72
2021/06/06 00:35:20;;;;;;;6.88;4.22;;;;;;;;;;5048375;28;20035;-72
2021/06/06 00:38:04;;;;;;;6.13;4.70;;;;;;;;;;5047731;28;20051;-74
2021/06/06 00:40:49;;;;;;;8.18;4.20;;;;;;;;;;5073504;28;20063;-71
2021/06/06 00:43:33;;;;;;;8.25;4.45;;;;;;;;;;5041280;28;20095;-72
2021/06/06 00:46:18;;;;;;;5.47;3.90;;;;;;;;;;5048217;28;20550;-73
2021/06/06 00:49:04;;;;;;;8.90;4.15;;;;;;;;;;5058601;28;20153;-73
2021/06/06 00:51:52;;;;;;;6.07;3.80;;;;;;;;;;5062043;28;20086;-72
2021/06/06 00:54:38;;;;;;;7.28;4.15;;;;;;;;;;5062753;28;20031;-72
2021/06/06 00:57:25;;;;;;;5.50;4.13;;;;;;;;;;5048988;28;20216;-73
2021/06/06 01:00:13;;;;;;;6.65;4.10;;;;;;;;;;5061975;28;20115;-72
2021/06/06 01:02:58;;;;;;;6.03;3.70;;;;;;;;;;5060537;28;20132;-71
2021/06/06 01:05:43;;;;;;;6.82;3.70;;;;;;;;;;5062986;28;20083;-72
2021/06/06 01:08:32;;;;;;;6.88;3.90;;;;;;;;;;5066116;28;20409;-72
2021/06/06 01:11:20;;;;;;;5.18;3.95;;;;;;;;;;5063691;28;20039;-72
2021/06/06 01:14:09;;;;;;;5.55;3.88;;;;;;;;;;5045508;28;20042;-72
2021/06/06 01:16:56;;;;;;;5.35;3.50;;;;;;;;;;5062350;28;20115;-72
2021/06/06 01:20:00;;;;;;;5.35;3.53;;;;;;;;;;5042254;28;20068;-72
2021/06/06 01:22:52;;;;;;;5.93;3.78;;;;;;;;;;5028862;28;20040;-72
2021/06/06 01:25:47;;;;;;;5.78;3.78;;;;;;;;;;5045349;28;20609;-72
2021/06/06 01:28:34;;;;;;;5.60;4.07;;;;;;;;;;5068034;28;20124;-71
2021/06/06 01:31:19;;;;;;;6.47;3.80;;;;;;;;;;5068594;28;20047;-72
2021/06/06 01:34:03;;;;;;;5.55;3.70;;;;;;;;;;5067870;28;20042;-72
2021/06/06 01:36:50;;;;;;;6.30;3.90;;;;;;;;;;5048442;28;20432;-73
2021/06/06 01:39:36;;;;;;;5.78;3.78;;;;;;;;;;5087172;28;20393;-72
2021/06/06 01:42:31;;;;;;;8.23;3.97;;;;;;;;;;5067510;28;20067;-72
2021/06/06 01:45:36;;;;;;;5.88;3.88;;;;;;;;;;5067428;28;20094;-72
2021/06/06 01:48:20;;;;;;;6.45;4.00;;;;;;;;;;5067133;28;20061;-72
2021/06/06 01:51:06;;;;;;;7.38;4.05;;;;;;;;;;5048359;28;20040;-72
2021/06/06 01:53:51;;;;;;;6.78;4.15;;;;;;;;;;5072817;28;20445;-72
2021/06/06 01:56:37;;;;;;;5.43;3.88;;;;;;;;;;5067965;28;20101;-72
2021/06/06 01:59:42;;;;;;;5.65;3.72;;;;;;;;;;5067917;28;20507;-71
2021/06/06 02:02:27;;;;;;;4.63;3.75;;;;;;;;;;5083371;28;20039;-72
2021/06/06 02:05:14;;;;;;;6.38;4.10;;;;;;;;;;5051945;28;20071;-71
2021/06/06 02:07:59;;;;;;;5.75;4.00;;;;;;;;;;5067674;28;20614;-72
2021/06/06 02:10:45;;;;;;;6.63;3.95;;;;;;;;;;5054118;28;20043;-72
2021/06/06 02:13:33;;;;;;;6.75;3.60;;;;;;;;;;5053768;28;20101;-72
2021/06/06 02:16:20;;;;;;;6.47;3.65;;;;;;;;;;5067541;28;20047;-71
2021/06/06 02:19:05;;;;;;;7.70;4.05;;;;;;;;;;5062271;28;20042;-71
2021/06/06 02:21:49;;;;;;;5.60;3.53;;;;;;;;;;5068172;28;20050;-72
2021/06/06 02:24:34;;;;;;;6.05;4.07;;;;;;;;;;5068000;28;20048;-72
2021/06/06 02:27:22;;;;;;;5.95;3.90;;;;;;;;;;5063212;28;20100;-72
2021/06/06 02:30:07;;;;;;;6.22;3.75;;;;;;;;;;5080340;28;20043;-72
2021/06/06 02:33:05;;;;;;;6.40;3.90;;;;;;;;;;5067163;28;20588;-73
2021/06/06 02:35:57;;;;;;;6.75;3.90;;;;;;;;;;5067434;28;20655;-72
2021/06/06 02:38:53;;;;;;;9.20;3.63;;;;;;;;;;5051608;28;20147;-72
2021/06/06 02:41:38;;;;;;;5.80;3.70;;;;;;;;;;5067015;28;20030;-73
2021/06/06 02:44:23;;;;;;;5.72;3.60;;;;;;;;;;5082533;28;20546;-72
2021/06/06 02:47:10;;;;;;;5.22;3.63;;;;;;;;;;5082037;28;20514;-72
2021/06/06 02:49:56;;;;;;;4.88;3.40;;;;;;;;;;5051232;28;20401;-71
2021/06/06 02:52:57;;;;;;;5.30;3.47;;;;;;;;;;5046163;28;20047;-71
2021/06/06 02:55:43;;;;;;;5.82;3.63;;;;;;;;;;5065455;28;20103;-71
2021/06/06 02:58:28;;;;;;;6.75;3.65;;;;;;;;;;5055469;28;20050;-71
2021/06/06 03:01:13;;;;;;;6.07;3.65;;;;;;;;;;5088725;28;20676;-71
2021/06/06 03:03:58;;;;;;;6.18;3.95;;;;;;;;;;5088600;28;20082;-71
2021/06/06 03:06:49;;;;;;;6.55;3.70;;;;;;;;;;5073500;28;20192;-71
2021/06/06 03:09:33;;;;;;;5.72;3.53;;;;;;;;;;5088424;28;20412;-72
2021/06/06 03:12:18;;;;;;;6.55;3.38;;;;;;;;;;5072545;28;20067;-71
2021/06/06 03:15:04;;;;;;;5.70;3.55;;;;;;;;;;5073002;28;20039;-71
2021/06/06 03:17:50;;;;;;;5.57;3.35;;;;;;;;;;5072642;28;20453;-72
2021/06/06 03:20:54;;;;;;;4.68;3.28;;;;;;;;;;5072984;28;20039;-71
2021/06/06 03:23:39;;;;;;;4.97;3.45;;;;;;;;;;5079563;28;20079;-72
2021/06/06 03:26:24;;;;;;;6.53;3.28;;;;;;;;;;5072119;28;20055;-72
2021/06/06 03:29:09;;;;;;;5.88;3.40;;;;;;;;;;5072547;28;20039;-71
2021/06/06 03:32:04;;;;;;;5.45;3.20;;;;;;;;;;5058402;28;20954;-72
2021/06/06 03:34:49;;;;;;;6.80;3.45;;;;;;;;;;5072810;28;20112;-72
2021/06/06 03:37:34;;;;;;;5.03;3.38;;;;;;;;;;5087324;28;20114;-71
2021/06/06 03:40:19;;;;;;;4.72;3.35;;;;;;;;;;5087780;28;20507;-72
2021/06/06 03:43:04;;;;;;;6.28;3.50;;;;;;;;;;5072123;28;20678;-71
2021/06/06 03:45:48;;;;;;;6.50;3.15;;;;;;;;;;5072224;28;20049;-72
2021/06/06 03:48:33;;;;;;;5.63;3.17;;;;;;;;;;5072048;28;20565;-71
2021/06/06 03:51:18;;;;;;;6.25;3.42;;;;;;;;;;5087326;28;20452;-72
2021/06/06 03:54:02;;;;;;;6.78;3.17;;;;;;;;;;5072329;28;20038;-71
2021/06/06 03:56:48;;;;;;;5.53;3.40;;;;;;;;;;5070668;28;20172;-71
2021/06/06 03:59:32;;;;;;;5.40;3.25;;;;;;;;;;5082261;28;20072;-71
2021/06/06 04:02:17;;;;;;;4.90;3.20;;;;;;;;;;5071754;28;20086;-72
2021/06/06 04:05:01;;;;;;;5.75;3.20;;;;;;;;;;5071452;28;20584;-71
2021/06/06 04:07:47;;;;;;;4.82;3.20;;;;;;;;;;5071748;28;20094;-71
2021/06/06 04:10:32;;;;;;;6.18;3.22;;;;;;;;;;5071363;28;20076;-71
2021/06/06 04:13:16;;;;;;;5.57;2.88;;;;;;;;;;5080394;28;20034;-72
2021/06/06 04:16:02;;;;;;;4.25;2.95;;;;;;;;;;5100883;28;20062;-71
2021/06/06 04:18:46;;;;;;;5.03;3.13;;;;;;;;;;5071626;28;20027;-72
2021/06/06 04:21:31;;;;;;;4.55;3.13;;;;;;;;;;5072555;28;20089;-71
2021/06/06 04:24:16;;;;;;;4.82;3.33;;;;;;;;;;5086775;28;20109;-72
2021/06/06 04:27:01;;;;;;;5.22;3.17;;;;;;;;;;5071558;28;20063;-71
2021/06/06 04:29:46;;;;;;;4.53;3.30;;;;;;;;;;5085958;28;20065;-71
2021/06/06 04:32:30;;;;;;;5.07;2.85;;;;;;;;;;5086680;28;20666;-71
2021/06/06 04:35:15;;;;;;;6.25;3.22;;;;;;;;;;5076387;28;20039;-72
2021/06/06 04:38:00;;;;;;;4.70;2.92;;;;;;;;;;5069980;28;20039;-71
2021/06/06 04:40:45;;;;;;;5.68;3.10;;;;;;;;;;5053428;28;20546;-72
2021/06/06 04:43:30;;;;;;;5.30;2.92;;;;;;;;;;5070854;28;20166;-72
2021/06/06 04:46:15;;;;;;;4.60;2.80;;;;;;;;;;5084903;28;20076;-71
2021/06/06 04:48:59;;;;;;;5.63;3.10;;;;;;;;;;5084368;28;20557;-73
2021/06/06 04:51:44;;;;;;;5.18;3.53;;;;;;;;;;5068254;28;20043;-72
2021/06/06 04:54:29;;;;;;;4.07;2.58;;;;;;;;;;5068721;28;20077;-72
2021/06/06 04:57:13;;;;;;;5.05;2.78;;;;;;;;;;5053781;28;20035;-72
2021/06/06 04:59:57;;;;;;;4.90;2.92;;;;;;;;;;5083304;28;20100;-72
2021/06/06 05:02:42;;;;;;;6.75;3.00;;;;;;;;;;5047835;28;20051;-72
2021/06/06 05:05:26;;;;;;;4.78;2.80;;;;;;;;;;5092419;28;20535;-72
2021/06/06 05:08:12;;;;;;;5.10;3.45;;;;;;;;;;5068048;28;20043;-72
2021/06/06 05:10:56;;;;;;;4.68;2.78;;;;;;;;;;5068214;28;20047;-72
2021/06/06 05:13:41;;;;;;;5.45;2.75;;;;;;;;;;5064418;28;20093;-71
2021/06/06 05:16:25;;;;;;;3.85;2.50;;;;;;;;;;5051101;28;20031;-72
2021/06/06 05:19:10;;;;;;;3.63;2.65;;;;;;;;;;5068165;28;20070;-72
2021/06/06 05:21:54;;;;;;;4.68;2.95;;;;;;;;;;5067524;28;20054;-72
2021/06/06 05:24:38;;;;;;;5.80;2.75;;;;;;;;;;5067904;28;20059;-72
2021/06/06 05:27:23;;;;;;;4.43;3.00;;;;;;;;;;5049631;28;20095;-72
2021/06/06 05:30:09;;;;;;;4.63;2.60;;;;;;;;;;5068604;28;20518;-72
2021/06/06 05:32:54;;;;;;;6.68;2.80;;;;;;;;;;5068461;28;20062;-72
2021/06/06 05:35:39;;;;;;;4.93;2.70;;;;;;;;;;5068145;28;20525;-71
2021/06/06 05:38:25;;;;;;;4.25;2.60;;;;;;;;;;5048029;28;20043;-72
2021/06/06 05:41:10;;;;;;;4.75;2.70;;;;;;;;;;5087260;28;20042;-72
2021/06/06 05:43:54;;;;;;;4.30;2.70;;;;;;;;;;5061082;28;20079;-71
2021/06/06 05:46:39;;;;;;;5.18;3.03;;;;;;;;;;5067635;28;20051;-72
2021/06/06 05:49:24;;;;;;;5.47;2.55;;;;;;;;;;5068418;28;20094;-72
2021/06/06 05:52:08;;;;;;;7.22;2.90;;;;;;;;;;5053823;28;20687;-71
2021/06/06 05:54:52;;;;;;;5.13;2.65;;;;;;;;;;5067685;28;20085;-71
2021/06/06 05:57:38;;;;;;;6.25;2.85;;;;;;;;;;5068202;28;20047;-71
2021/06/06 06:00:30;;;;;;;4.57;2.65;;;;;;;;;;5068010;28;20031;-72
2021/06/06 06:03:14;;;;;;;4.68;2.60;;;;;;;;;;5055409;28;20910;-72
2021/06/06 06:05:59;;;;;;;4.63;2.47;;;;;;;;;;5057220;28;20097;-72
2021/06/06 06:08:44;;;;;;;6.97;3.00;;;;;;;;;;5062044;28;20042;-72
2021/06/06 06:11:28;;;;;;;6.35;2.58;;;;;;;;;;5057408;28;20547;-72
2021/06/06 06:14:13;;;;;;;5.95;2.80;;;;;;;;;;5080076;28;20519;-72
2021/06/06 06:16:57;;;;;;;4.85;2.47;;;;;;;;;;5083359;28;20380;-72
2021/06/06 06:19:42;;;;;;;4.38;2.70;;;;;;;;;;5083622;28;20415;-72
2021/06/06 06:22:27;;;;;;;4.35;2.60;;;;;;;;;;5068714;28;20412;-72
2021/06/06 06:25:12;;;;;;;7.00;2.97;;;;;;;;;;5067717;28;20534;-72
2021/06/06 06:27:56;;;;;;;3.83;2.30;;;;;;;;;;5067633;28;20093;-72
2021/06/06 06:30:41;;;;;;;3.22;2.42;;;;;;;;;;5073450;28;20177;-72
2021/06/06 06:33:26;;;;;;;4.88;2.53;;;;;;;;;;5069542;28;20039;-73
2021/06/06 06:36:11;;;;;;;5.13;2.53;;;;;;;;;;5076091;28;20038;-72
2021/06/06 06:38:56;;;;;;;4.90;2.30;;;;;;;;;;5064705;28;20558;-72
2021/06/06 06:41:40;;;;;;;5.03;3.03;;;;;;;;;;5088786;28;20039;-72
2021/06/06 06:44:25;;;;;;;4.30;2.80;;;;;;;;;;5051137;28;20093;-73
2021/06/06 06:47:09;;;;;;;6.13;3.08;;;;;;;;;;5076786;28;20809;-72
2021/06/06 06:49:54;;;;;;;4.60;2.60;;;;;;;;;;5071008;28;20046;-72
2021/06/06 06:52:38;;;;;;;4.70;2.58;;;;;;;;;;5070596;28;20043;-72
2021/06/06 06:55:23;;;;;;;3.35;2.30;;;;;;;;;;5071400;28;20101;-72
2021/06/06 06:58:08;;;;;;;4.95;2.78;;;;;;;;;;5087174;28;20059;-72
2021/06/06 07:00:53;;;;;;;5.80;2.53;;;;;;;;;;5070439;28;20043;-71
2021/06/06 07:03:38;;;;;;;5.53;2.60;;;;;;;;;;5086711;28;20070;-72
2021/06/06 07:06:22;;;;;;;4.15;2.42;;;;;;;;;;5069200;28;20043;-71
2021/06/06 07:09:07;;;;;;;4.70;2.50;;;;;;;;;;5062995;28;20503;-72
2021/06/06 07:11:53;;;;;;;4.32;2.80;;;;;;;;;;5042152;28;20042;-72
2021/06/06 07:14:37;;;;;;;5.63;2.75;;;;;;;;;;5071053;28;20502;-72
2021/06/06 07:17:22;;;;;;;6.00;2.35;;;;;;;;;;5085842;28;20058;-72
2021/06/06 07:20:07;;;;;;;4.80;2.60;;;;;;;;;;5070601;28;20039;-71
2021/06/06 07:22:52;;;;;;;3.55;2.58;;;;;;;;;;5071412;28;20113;-71
2021/06/06 07:25:37;;;;;;;3.83;2.60;;;;;;;;;;5086170;28;20476;-72
2021/06/06 07:28:22;;;;;;;6.03;2.50;;;;;;;;;;5055156;28;20440;-71
2021/06/06 07:31:07;;;;;;;4.95;2.50;;;;;;;;;;5044762;28;20079;-72
2021/06/06 07:33:52;;;;;;;5.88;2.50;;;;;;;;;;5058317;28;20127;-72
2021/06/06 07:36:37;;;;;;;3.63;2.47;;;;;;;;;;5063950;28;20125;-72
2021/06/06 07:39:21;;;;;;;3.80;3.08;;;;;;;;;;5042676;28;20079;-72
2021/06/06 07:42:07;;;;;;;5.25;2.72;;;;;;;;;;5072340;28;20847;-72
2021/06/06 07:44:52;;;;;;;5.63;2.83;;;;;;;;;;5063204;28;20066;-72
2021/06/06 07:47:40;;;;;;;4.38;2.42;;;;;;;;;;5063921;28;20039;-72
2021/06/06 07:50:26;;;;;;;4.72;2.80;;;;;;;;;;5036725;28;20082;-72
2021/06/06 07:53:11;;;;;;;4.43;2.58;;;;;;;;;;5053174;28;20075;-72
2021/06/06 07:55:56;;;;;;;6.30;2.55;;;;;;;;;;5064425;28;20043;-72
2021/06/06 07:58:41;;;;;;;4.05;2.40;;;;;;;;;;5065658;28;20397;-72
2021/06/06 08:01:25;;;;;;;3.88;2.42;;;;;;;;;;5065068;28;20055;-71
2021/06/06 08:04:10;;;;;;;4.05;2.45;;;;;;;;;;5043768;28;20051;-72
2021/06/06 08:06:54;;;;;;;6.78;2.70;;;;;;;;;;5040756;28;20183;-72
2021/06/06 08:09:39;;;;;;;4.47;2.53;;;;;;;;;;5064634;28;20043;-72
2021/06/06 08:12:26;;;;;;;3.50;2.53;;;;;;;;;;5064774;28;20487;-72
2021/06/06 08:15:11;;;;;;;4.15;2.58;;;;;;;;;;5039196;28;20044;-72
2021/06/06 08:17:56;;;;;;;5.00;2.40;;;;;;;;;;5064074;28;20121;-72
2021/06/06 08:20:43;;;;;;;3.50;2.08;;;;;;;;;;5064781;28;20078;-72
2021/06/06 08:23:27;;;;;;;4.88;2.55;;;;;;;;;;5049144;28;20055;-72
2021/06/06 08:26:12;;;;;;;5.20;2.50;;;;;;;;;;5032894;28;20555;-72
2021/06/06 08:28:57;;;;;;;4.45;2.58;;;;;;;;;;5043107;28;20154;-72
2021/06/06 08:31:42;;;;;;;4.82;2.70;;;;;;;;;;5049598;28;20731;-73
2021/06/06 08:34:27;;;;;;;4.97;2.30;;;;;;;;;;5078267;28;20076;-72
2021/06/06 08:37:12;;;;;;;3.10;2.17;;;;;;;;;;5085005;28;20040;-72
2021/06/06 08:39:56;;;;;;;4.38;2.30;;;;;;;;;;5068611;28;20260;-74
2021/06/06 08:42:42;;;;;;;3.97;2.60;;;;;;;;;;5068071;28;20463;-72
2021/06/06 08:45:34;;;;;;;4.60;2.40;;;;;;;;;;5080539;28;20039;-73
2021/06/06 08:48:20;;;;;;;3.10;2.00;;;;;;;;;;5083803;28;20043;-72
2021/06/06 08:51:10;;;;;;;4.18;2.20;;;;;;;;;;5053180;28;20546;-72
2021/06/06 08:54:11;;;;;;;3.67;2.13;;;;;;;;;;5082248;28;20039;-73
2021/06/06 08:57:04;;;;;;;5.28;2.60;;;;;;;;;;5055192;28;20039;-72
2021/06/06 08:59:51;;;;;;;4.28;2.72;;;;;;;;;;5075053;28;20166;-73
2021/06/06 09:02:36;;;;;;;4.55;2.45;;;;;;;;;;5067692;28;20042;-72
2021/06/06 09:05:47;;;;;;;5.00;2.55;;;;;;;;;;5075721;28;20089;-72
2021/06/06 09:08:33;;;;;;;3.88;2.20;;;;;;;;;;5084180;28;20039;-73
2021/06/06 09:11:19;;;;;;;3.70;2.15;;;;;;;;;;5067876;28;20039;-73
2021/06/06 09:14:03;;;;;;;5.72;2.40;;;;;;;;;;5070247;28;20035;-72
2021/06/06 09:16:53;;;;;;;3.92;2.30;;;;;;;;;;5074615;28;20105;-74
2021/06/06 09:19:48;;;;;;;4.35;2.15;;;;;;;;;;5070407;28;20039;-72
2021/06/06 09:22:33;;;;;;;4.25;2.40;;;;;;;;;;5081430;28;20086;-71
2021/06/06 09:25:23;;;;;;;3.50;2.22;;;;;;;;;;5083038;28;20054;-72
2021/06/06 09:28:19;;;;;;;3.63;2.58;;;;;;;;;;5072592;28;20047;-72
2021/06/06 09:31:16;;;;;;;5.13;2.60;;;;;;;;;;5080776;28;20047;-72
2021/06/06 09:34:02;;;;;;;3.72;2.40;;;;;;;;;;5081674;28;20507;-72
2021/06/06 09:37:05;;;;;;;3.53;2.33;;;;;;;;;;5067590;28;20042;-73
2021/06/06 09:40:03;;;;;;;3.38;2.30;;;;;;;;;;5082177;28;20061;-71
2021/06/06 09:42:49;;;;;;;3.08;2.13;;;;;;;;;;5052225;28;20062;-73
2021/06/06 09:45:35;;;;;;;4.22;2.47;;;;;;;;;;5057480;28;20039;-72
2021/06/06 09:48:27;;;;;;;3.83;2.55;;;;;;;;;;5065444;28;20077;-73
2021/06/06 09:51:14;;;;;;;3.35;2.22;;;;;;;;;;5080998;28;20148;-73
2021/06/06 09:54:13;;;;;;;3.95;2.30;;;;;;;;;;5065999;28;20055;-72
2021/06/06 09:56:59;;;;;;;4.68;2.60;;;;;;;;;;5067735;28;20039;-73
2021/06/06 09:59:43;;;;;;;3.13;2.30;;;;;;;;;;5063673;28;20047;-73
2021/06/06 10:02:29;;;;;;;3.28;2.40;;;;;;;;;;5065154;28;20081;-73
2021/06/06 10:05:17;;;;;;;4.10;2.22;;;;;;;;;;5066483;28;20113;-73
2021/06/06 10:08:22;;;;;;;3.97;2.35;;;;;;;;;;5051612;28;20401;-72
2021/06/06 10:11:11;;;;;;;3.67;2.10;;;;;;;;;;5067381;28;20873;-74
2021/06/06 10:13:56;;;;;;;4.13;2.30;;;;;;;;;;5082389;28;20039;-72
2021/06/06 10:16:41;;;;;;;3.28;2.20;;;;;;;;;;5055854;28;20492;-73
2021/06/06 10:19:28;;;;;;;3.55;2.40;;;;;;;;;;5067751;28;20796;-72
2021/06/06 10:22:18;;;;;;;2.95;2.08;;;;;;;;;;5069133;28;20088;-73
2021/06/06 10:25:11;;;;;;;5.20;2.50;;;;;;;;;;5056006;28;20050;-73
2021/06/06 10:28:00;;;;;;;3.47;2.13;;;;;;;;;;5069271;28;20129;-72
2021/06/06 10:30:58;;;;;;;4.57;2.50;;;;;;;;;;5076994;28;20095;-73
2021/06/06 10:33:54;;;;;;;4.57;2.53;;;;;;;;;;5071800;28;20043;-73
2021/06/06 10:36:40;;;;;;;3.65;2.22;;;;;;;;;;5070617;28;20058;-73
2021/06/06 10:39:26;;;;;;;3.08;2.45;;;;;;;;;;5062632;28;20092;-72
2021/06/06 10:42:10;;;;;;;3.88;2.45;;;;;;;;;;5056413;28;20051;-73
2021/06/06 10:45:00;;;;;;;3.85;2.33;;;;;;;;;;5070926;28;20126;-72
2021/06/06 10:47:45;;;;;;;4.88;2.40;;;;;;;;;;5093014;28;20447;-73
2021/06/06 10:50:31;;;;;;;4.50;2.45;;;;;;;;;;5077750;28;20043;-72
2021/06/06 10:53:23;;;;;;;3.03;2.25;;;;;;;;;;5049833;28;20117;-72
2021/06/06 10:56:08;;;;;;;3.90;2.25;;;;;;;;;;5067100;28;20117;-72
2021/06/06 10:58:52;;;;;;;3.47;2.30;;;;;;;;;;5091454;28;20111;-72
2021/06/06 11:01:43;;;;;;;5.30;2.20;;;;;;;;;;5066878;28;20043;-72
2021/06/06 11:04:29;;;;;;;5.00;2.50;;;;;;;;;;5096340;28;20101;-71
2021/06/06 11:07:20;;;;;;;4.45;2.60;;;;;;;;;;5062174;28;20220;-72
2021/06/06 11:10:28;;;;;;;5.35;2.75;;;;;;;;;;5088816;28;20065;-72
2021/06/06 11:13:28;;;;;;;3.08;2.20;;;;;;;;;;5073098;28;20062;-72
2021/06/06 11:16:15;;;;;;;2.97;2.30;;;;;;;;;;5075082;28;20404;-72
2021/06/06 11:19:02;;;;;;;4.47;2.28;;;;;;;;;;5070820;28;20039;-74
2021/06/06 11:21:46;;;;;;;4.95;3.00;;;;;;;;;;5088585;27;20086;-72
2021/06/06 11:24:40;;;;;;;4.85;3.00;;;;;;;;;;5093521;28;20096;-72
2021/06/06 11:27:30;;;;;;;4.82;2.75;;;;;;;;;;5078376;28;20073;-72
2021/06/06 11:30:21;;;;;;;6.13;3.08;;;;;;;;;;5070573;28;20481;-72
2021/06/06 11:33:10;;;;;;;6.25;3.38;;;;;;;;;;5083998;28;20143;-72
2021/06/06 11:35:56;;;;;;;4.32;3.33;;;;;;;;;;5083626;28;20031;-72
2021/06/06 11:38:45;;;;;;;3.80;2.88;;;;;;;;;;5073382;28;20043;-73
2021/06/06 11:41:31;;;;;;;5.75;3.33;;;;;;;;;;5075190;28;20043;-72
2021/06/06 11:44:21;;;;;;;4.35;3.15;;;;;;;;;;5075712;28;20093;-72
2021/06/06 11:47:07;;;;;;;4.43;2.65;;;;;;;;;;5075450;28;20039;-72
2021/06/06 11:49:51;;;;;;;3.28;2.70;;;;;;;;;;5069692;28;20140;-72
2021/06/06 11:52:37;;;;;;;5.22;2.65;;;;;;;;;;5099956;28;20408;-72
2021/06/06 11:55:29;;;;;;;4.20;3.00;;;;;;;;;;5067838;28;20088;-72
2021/06/06 11:58:21;;;;;;;5.27;3.10;;;;;;;;;;5091035;28;20498;-74
2021/06/06 12:01:05;;;;;;;;;;;;;;;;;;5073765;28;20278;-72
2021/06/06 12:03:51;;;;;;;4.82;3.10;;;;;;;;;;5066414;28;19990;-72
2021/06/06 12:06:35;;;;;;;4.82;2.80;;;;;;;;;;5062461;28;20035;-72
2021/06/06 12:09:24;;;;;;;4.03;2.92;;;;;;;;;;5067639;28;20058;-72
2021/06/06 12:12:16;;;;;;;4.80;2.80;;;;;;;;;;5085543;28;20043;-72
2021/06/06 12:15:01;;;;;;;3.45;2.55;;;;;;;;;;5084431;28;20072;-72
2021/06/06 12:17:45;;;;;;;4.10;2.85;;;;;;;;;;5085308;28;20509;-73
2021/06/06 12:20:30;;;;;;;3.72;2.72;;;;;;;;;;5061936;28;20035;-72
2021/06/06 12:23:15;;;;;;;3.92;2.70;;;;;;;;;;5066068;28;20755;-72
2021/06/06 12:26:10;;;;;;;4.72;2.67;;;;;;;;;;5072066;28;20061;-72
2021/06/06 12:28:55;;;;;;;4.13;2.47;;;;;;;;;;5063119;28;20059;-70
2021/06/06 12:31:44;;;;;;;3.67;2.40;;;;;;;;;;5062261;28;21709;-71
2021/06/06 12:34:30;;;;;;;3.53;2.58;;;;;;;;;;5078815;28;20116;-71
2021/06/06 12:37:22;;;;;;;3.63;2.65;;;;;;;;;;5055752;28;20113;-71
2021/06/06 12:40:07;;;;;;;4.93;2.90;;;;;;;;;;5078374;28;20065;-71
2021/06/06 12:42:56;;;;;;;5.00;3.20;;;;;;;;;;5067681;28;20071;-74
2021/06/06 12:45:41;;;;;;;5.55;2.50;;;;;;;;;;5069985;28;20336;-72
2021/06/06 12:48:29;;;;;;;5.13;2.53;;;;;;;;;;5080345;28;20502;-73
2021/06/06 12:51:20;;;;;;;4.05;2.55;;;;;;;;;;5096954;28;20039;-72
2021/06/06 12:54:17;;;;;;;5.05;2.72;;;;;;;;;;5049460;28;20584;-72
2021/06/06 12:57:21;;;;;;;5.55;2.88;;;;;;;;;;5082723;28;20098;-72
2021/06/06 13:00:10;;;;;;;3.63;2.28;;;;;;;;;;5075258;28;20035;-72
2021/06/06 13:02:54;;;;;;;4.40;2.70;;;;;;;;;;5084723;28;20069;-72
2021/06/06 13:05:41;;;;;;;4.38;2.63;;;;;;;;;;5068548;28;20046;-71
2021/06/06 13:08:34;;;;;;;3.05;2.35;;;;;;;;;;5073349;28;20050;-72
2021/06/06 13:11:18;;;;;;;4.78;2.60;;;;;;;;;;5087423;28;20059;-72
2021/06/06 13:14:05;;;;;;;4.53;2.75;;;;;;;;;;5090672;28;20499;-72
2021/06/06 13:17:04;;;;;;;5.45;2.35;;;;;;;;;;5054410;28;20042;-73
2021/06/06 13:19:49;;;;;;;3.85;2.50;;;;;;;;;;5083491;28;20039;-73
2021/06/06 13:22:34;;;;;;;5.57;2.70;;;;;;;;;;5059754;28;20123;-72
2021/06/06 13:25:22;;;;;;;5.72;2.95;;;;;;;;;;5078049;28;20070;-72
2021/06/06 13:28:19;;;;;;;7.13;2.80;;;;;;;;;;5066738;28;20059;-73
2021/06/06 13:31:07;;;;;;;4.47;2.63;;;;;;;;;;5098710;28;20101;-74
2021/06/06 13:33:51;;;;;;;4.53;3.00;;;;;;;;;;5072728;28;20082;-72
2021/06/06 13:36:36;;;;;;;4.22;2.78;;;;;;;;;;5086603;28;20043;-72
2021/06/06 13:39:25;;;;;;;3.97;2.63;;;;;;;;;;5049905;28;20042;-72
2021/06/06 13:42:10;;;;;;;4.65;2.55;;;;;;;;;;5075012;28;20051;-72
2021/06/06 13:44:55;;;;;;;3.67;2.55;;;;;;;;;;5084387;28;20054;-73
2021/06/06 13:47:39;;;;;;;3.50;2.30;;;;;;;;;;5056896;28;20471;-73
2021/06/06 13:50:24;;;;;;;4.10;2.80;;;;;;;;;;5069706;28;20057;-74
2021/06/06 13:53:17;;;;;;;4.40;2.60;;;;;;;;;;5070306;28;20081;-72
2021/06/06 13:56:02;;;;;;;3.38;2.45;;;;;;;;;;5069014;28;20411;-73
2021/06/06 13:58:46;;;;;;;3.85;2.50;;;;;;;;;;5065695;28;20035;-73
2021/06/06 14:01:35;;;;;;;3.92;2.60;;;;;;;;;;5082764;28;20092;-72
2021/06/06 14:04:20;;;;;;;4.35;2.55;;;;;;;;;;5065960;28;20670;-73
2021/06/06 14:07:04;;;;;;;3.47;2.53;;;;;;;;;;5080545;28;20046;-72
2021/06/06 14:09:49;;;;;;;3.80;2.60;;;;;;;;;;5069843;28;20042;-73
2021/06/06 14:12:34;;;;;;;4.57;2.42;;;;;;;;;;5072672;28;20070;-71
2021/06/06 14:15:19;;;;;;;2.78;2.35;;;;;;;;;;5084854;28;20079;-72
2021/06/06 14:18:04;;;;;;;4.97;2.40;;;;;;;;;;5096828;28;20035;-71
2021/06/06 14:20:50;;;;;;;4.43;2.65;;;;;;;;;;5071732;28;20100;-72
2021/06/06 14:23:36;;;;;;;6.13;2.70;;;;;;;;;;5050097;28;20487;-72
2021/06/06 14:26:21;;;;;;;5.53;2.42;;;;;;;;;;5047606;28;20078;-72
2021/06/06 14:29:06;;;;;;;3.78;2.40;;;;;;;;;;5070406;28;20047;-72
2021/06/06 14:31:51;;;;;;;3.83;2.53;;;;;;;;;;5090183;28;20047;-73
2021/06/06 14:34:35;;;;;;;5.22;2.60;;;;;;;;;;5057667;28;20210;-72
2021/06/06 14:37:20;;;;;;;4.28;2.65;;;;;;;;;;5068216;28;20073;-72
2021/06/06 14:40:05;;;;;;;3.55;2.47;;;;;;;;;;5082839;28;20043;-72
2021/06/06 14:42:49;;;;;;;3.97;2.47;;;;;;;;;;5079628;28;20076;-72
2021/06/06 14:45:35;;;;;;;4.07;2.67;;;;;;;;;;5048219;28;20105;-73
2021/06/06 14:48:21;;;;;;;5.50;2.35;;;;;;;;;;5065448;28;20082;-72
2021/06/06 14:51:06;;;;;;;5.68;2.67;;;;;;;;;;5084494;28;20119;-71
2021/06/06 14:53:51;;;;;;;3.83;2.53;;;;;;;;;;5067500;28;20043;-71
2021/06/06 14:56:36;;;;;;;4.25;2.30;;;;;;;;;;5071307;28;20042;-72
2021/06/06 14:59:21;;;;;;;4.65;2.40;;;;;;;;;;5095554;28;20123;-72
2021/06/06 15:02:05;;;;;;;3.70;2.47;;;;;;;;;;5074347;28;20082;-73
2021/06/06 15:04:50;;;;;;;3.55;2.45;;;;;;;;;;5085402;28;20062;-73
2021/06/06 15:07:35;;;;;;;4.43;2.65;;;;;;;;;;5056229;28;20613;-72
2021/06/06 15:10:21;;;;;;;3.42;2.33;;;;;;;;;;5075351;28;20055;-72
2021/06/06 15:13:06;;;;;;;3.85;2.35;;;;;;;;;;5070630;28;20047;-72
2021/06/06 15:15:51;;;;;;;5.13;2.30;;;;;;;;;;5086039;28;20043;-71
2021/06/06 15:18:36;;;;;;;4.03;2.22;;;;;;;;;;5073675;28;20041;-71
2021/06/06 15:21:26;;;;;;;3.38;2.30;;;;;;;;;;5074501;28;20140;-72
2021/06/06 15:24:11;;;;;;;5.38;2.58;;;;;;;;;;5081607;28;20046;-72
2021/06/06 15:26:55;;;;;;;3.60;2.47;;;;;;;;;;5085494;28;20059;-71
2021/06/06 15:29:40;;;;;;;3.22;2.33;;;;;;;;;;5085476;28;20038;-72
2021/06/06 15:32:25;;;;;;;3.28;2.20;;;;;;;;;;5069997;28;20093;-72
2021/06/06 15:35:10;;;;;;;3.63;2.40;;;;;;;;;;5080540;28;20666;-72
2021/06/06 15:37:55;;;;;;;5.22;2.40;;;;;;;;;;5070247;28;20081;-71
2021/06/06 15:40:40;;;;;;;3.03;2.30;;;;;;;;;;5069974;28;20084;-72
2021/06/06 15:43:25;;;;;;;4.50;2.47;;;;;;;;;;5070634;28;20048;-71
2021/06/06 15:46:10;;;;;;;3.53;2.65;;;;;;;;;;5069894;28;20071;-71
2021/06/06 15:48:55;;;;;;;4.18;2.25;;;;;;;;;;5084914;28;20104;-71
2021/06/06 15:51:41;;;;;;;4.70;2.67;;;;;;;;;;5069818;28;20109;-72
2021/06/06 15:54:27;;;;;;;3.58;2.30;;;;;;;;;;5078845;28;20071;-72
2021/06/06 15:57:11;;;;;;;3.00;2.20;;;;;;;;;;5069570;28;20062;-71
2021/06/06 15:59:56;;;;;;;4.20;2.45;;;;;;;;;;5102341;28;20042;-72
2021/06/06 16:02:40;;;;;;;3.42;2.10;;;;;;;;;;5082230;28;20055;-72
2021/06/06 16:05:25;;;;;;;4.50;2.50;;;;;;;;;;5072327;28;20043;-72
2021/06/06 16:08:10;;;;;;;4.25;2.50;;;;;;;;;;5068382;28;20082;-72
2021/06/06 16:10:55;;;;;;;4.57;2.40;;;;;;;;;;5082817;28;20086;-72
2021/06/06 16:13:39;;;;;;;4.28;2.60;;;;;;;;;;5071201;28;20109;-74
2021/06/06 16:16:24;;;;;;;4.18;2.35;;;;;;;;;;5083007;28;20407;-72
2021/06/06 16:19:08;;;;;;;4.10;2.40;;;;;;;;;;5074400;28;20043;-71
2021/06/06 16:21:54;;;;;;;3.60;2.15;;;;;;;;;;5067481;28;20069;-72
2021/06/06 16:24:39;;;;;;;4.10;2.30;;;;;;;;;;5094927;28;20145;-71
2021/06/06 16:27:24;;;;;;;3.95;2.35;;;;;;;;;;5065558;28;20173;-71
2021/06/06 16:30:09;;;;;;;5.20;2.40;;;;;;;;;;5076154;28;20451;-71
2021/06/06 16:32:54;;;;;;;4.97;2.42;;;;;;;;;;5073546;28;20058;-70
2021/06/06 16:35:39;;;;;;;3.38;2.70;;;;;;;;;;5074067;28;20030;-71
2021/06/06 16:38:24;;;;;;;3.10;2.28;;;;;;;;;;5088134;28;20096;-71
2021/06/06 16:41:09;;;;;;;4.10;2.20;;;;;;;;;;5066079;28;20047;-71